createdAt,value
2023-03-16T00:04:55.000Z,67.20
2023-03-16T00:10:00.172Z,67.20
2023-03-16T00:15:06.067Z,67.40
2023-03-16T00:20:12.506Z,67.60
2023-03-16T00:25:18.509Z,67.60
2023-03-16T00:30:24.459Z,67.80
2023-03-16T00:35:30.150Z,67.90
2023-03-16T00:40:37.245Z,68.00
2023-03-16T00:45:44.774Z,67.90
2023-03-16T00:50:54.231Z,67.90
2023-03-16T00:56:12.237Z,67.60
2023-03-16T01:01:19.072Z,67.70
2023-03-16T01:06:24.603Z,67.90
2023-03-16T01:11:30.506Z,67.90
2023-03-16T01:16:34.591Z,67.90
2023-03-16T01:21:39.286Z,67.90
2023-03-16T01:26:45.167Z,68.10
2023-03-16T01:31:50.141Z,68.10
2023-03-16T01:36:54.127Z,68.30
2023-03-16T01:41:59.249Z,68.20
2023-03-16T01:47:02.764Z,68.10
2023-03-16T01:52:09.725Z,68.40
2023-03-16T01:57:17.781Z,68.70
2023-03-16T02:02:23.800Z,68.80
2023-03-16T02:07:29.703Z,68.80
2023-03-16T02:12:35.157Z,68.80
2023-03-16T02:17:39.090Z,68.60
2023-03-16T02:22:46.359Z,68.70
2023-03-16T02:27:59.510Z,68.70
2023-03-16T02:33:05.290Z,68.90
2023-03-16T02:38:09.100Z,68.90
2023-03-16T02:43:16.820Z,69.20
2023-03-16T02:48:25.310Z,69.30
2023-03-16T02:53:28.759Z,69.40
2023-03-16T02:58:32.882Z,69.40
2023-03-16T03:03:37.988Z,69.50
2023-03-16T03:08:42.676Z,69.40
2023-03-16T03:13:46.517Z,69.60
2023-03-16T03:18:52.742Z,69.80
2023-03-16T03:23:56.369Z,70.00
2023-03-16T03:28:59.994Z,70.00
2023-03-16T03:34:06.749Z,69.80
2023-03-16T03:39:10.310Z,69.70
2023-03-16T03:44:14.007Z,69.50
2023-03-16T03:49:19.032Z,69.60
2023-03-16T03:54:22.794Z,69.60
2023-03-16T03:59:26.540Z,69.80
2023-03-16T04:04:33.849Z,70.20
2023-03-16T04:09:37.569Z,70.30
2023-03-16T04:14:40.986Z,70.10
2023-03-16T04:19:52.029Z,70.10
2023-03-16T04:24:55.456Z,70.30
2023-03-16T04:29:59.756Z,70.20
2023-03-16T04:35:05.375Z,70.10
2023-03-16T04:40:16.639Z,70.20
2023-03-16T04:45:20.427Z,70.40
2023-03-16T04:50:25.647Z,70.20
2023-03-16T04:55:29.633Z,70.40
2023-03-16T05:00:33.599Z,70.50
2023-03-16T05:05:38.888Z,70.60
2023-03-16T05:10:42.589Z,70.70
2023-03-16T05:15:46.102Z,70.70
2023-03-16T05:20:53.537Z,71.00
2023-03-16T05:25:59.786Z,71.00
2023-03-16T05:31:03.808Z,71.00
2023-03-16T05:36:09.520Z,71.40
2023-03-16T05:41:14.952Z,71.50
2023-03-16T05:46:20.863Z,71.60
2023-03-16T05:51:27.034Z,71.70
2023-03-16T05:56:30.934Z,71.80
2023-03-16T06:01:35.060Z,71.90
2023-03-16T06:06:40.343Z,71.90
2023-03-16T06:11:44.522Z,72.20
2023-03-16T06:16:49.923Z,72.30
2023-03-16T06:21:55.231Z,72.40
2023-03-16T06:26:58.675Z,72.50
2023-03-16T06:32:02.163Z,72.50
2023-03-16T06:37:07.250Z,72.70
2023-03-16T06:42:11.030Z,72.80
2023-03-16T06:47:14.846Z,72.70
2023-03-16T06:52:19.703Z,72.90
2023-03-16T06:57:24.028Z,72.80
2023-03-16T07:02:27.540Z,72.50
2023-03-16T07:07:34.691Z,72.50
2023-03-16T07:12:40.676Z,72.40
2023-03-16T07:17:44.464Z,72.40
2023-03-16T07:22:49.377Z,72.30
2023-03-16T07:27:52.791Z,72.20
2023-03-16T07:32:56.289Z,72.10
2023-03-16T07:38:01.549Z,71.90
2023-03-16T07:43:05.282Z,71.60
2023-03-16T07:48:09.282Z,71.40
2023-03-16T07:53:14.527Z,71.00
2023-03-16T07:58:18.375Z,71.10
2023-03-16T08:03:22.700Z,71.00
2023-03-16T08:08:28.000Z,70.90
2023-03-16T08:13:31.939Z,70.60
2023-03-16T08:18:35.377Z,70.90
2023-03-16T08:23:40.432Z,69.50
2023-03-16T08:28:47.662Z,69.30
2023-03-16T08:33:51.795Z,68.50
2023-03-16T08:39:06.641Z,68.10
2023-03-16T08:44:10.933Z,67.10
2023-03-16T08:49:14.828Z,67.40
2023-03-16T08:54:19.606Z,67.00
2023-03-16T08:59:29.719Z,66.10
2023-03-16T09:04:34.069Z,65.10
2023-03-16T09:09:39.774Z,66.00
2023-03-16T09:14:43.260Z,65.20
2023-03-16T09:19:51.475Z,64.70
2023-03-16T09:24:57.959Z,63.40
2023-03-16T09:30:02.633Z,63.50
2023-03-16T09:35:07.150Z,63.50
2023-03-16T09:40:23.135Z,64.10
2023-03-16T09:45:36.431Z,63.80
2023-03-16T09:50:48.857Z,61.70
2023-03-16T09:55:58.686Z,61.70
2023-03-16T10:01:11.264Z,60.80
2023-03-16T10:06:14.977Z,57.20
2023-03-16T10:11:26.915Z,58.80
2023-03-16T10:16:37.478Z,58.70
2023-03-16T10:21:43.356Z,56.60
2023-03-16T10:27:00.196Z,54.60
2023-03-16T10:32:14.225Z,55.30
2023-03-16T10:37:17.767Z,54.10
2023-03-16T10:42:22.682Z,56.30
2023-03-16T10:47:30.548Z,54.10
2023-03-16T10:52:36.804Z,55.00
2023-03-16T10:57:45.552Z,55.60
2023-03-16T11:02:50.510Z,52.50
2023-03-16T11:08:00.299Z,52.30
2023-03-16T11:13:12.643Z,48.50
2023-03-16T11:18:26.796Z,48.20
2023-03-16T11:23:34.341Z,49.50
2023-03-16T11:28:44.774Z,51.10
2023-03-16T11:33:49.107Z,50.40
2023-03-16T11:39:05.739Z,47.50
2023-03-16T11:44:17.222Z,47.80
2023-03-16T11:49:44.624Z,46.20
2023-03-16T11:55:02.730Z,46.70
2023-03-16T12:00:21.281Z,46.90
2023-03-16T12:05:44.344Z,46.90
2023-03-16T12:10:54.166Z,44.60
2023-03-16T12:16:01.825Z,44.60
2023-03-16T12:21:12.400Z,45.90
2023-03-16T12:26:17.705Z,45.90
2023-03-16T12:31:29.390Z,45.70
2023-03-16T12:36:59.135Z,45.40
2023-03-16T12:42:19.620Z,46.10
2023-03-16T12:47:33.707Z,45.30
2023-03-16T12:52:43.140Z,42.60
2023-03-16T12:57:49.553Z,42.50
2023-03-16T13:02:59.982Z,42.70
2023-03-16T13:08:10.859Z,43.00
2023-03-16T13:13:17.238Z,44.70
2023-03-16T13:18:25.343Z,43.60
2023-03-16T13:23:52.231Z,43.30
2023-03-16T13:28:56.913Z,43.10
2023-03-16T13:34:03.827Z,41.90
2023-03-16T13:39:17.514Z,41.30
2023-03-16T13:44:23.822Z,40.60
2023-03-16T13:49:28.788Z,39.10
2023-03-16T13:54:33.305Z,39.70
2023-03-16T13:59:39.073Z,40.10
2023-03-16T14:04:44.791Z,39.70
2023-03-16T14:09:50.239Z,39.30
2023-03-16T14:14:56.847Z,39.20
2023-03-16T14:20:04.221Z,38.30
2023-03-16T14:25:11.969Z,38.10
2023-03-16T14:30:19.513Z,37.60
2023-03-16T14:35:28.622Z,37.10
2023-03-16T14:40:33.453Z,37.50
2023-03-16T14:45:37.989Z,37.80
2023-03-16T14:50:45.972Z,37.70
2023-03-16T14:55:49.749Z,39.20
2023-03-16T15:00:54.997Z,37.70
2023-03-16T15:06:01.366Z,39.00
2023-03-16T15:11:07.672Z,38.70
2023-03-16T15:16:14.205Z,39.20
2023-03-16T15:21:24.840Z,38.80
2023-03-16T15:26:30.722Z,39.10
2023-03-16T15:31:37.534Z,38.80
2023-03-16T15:36:42.564Z,39.00
2023-03-16T15:41:48.044Z,37.50
2023-03-16T15:46:51.682Z,35.50
2023-03-16T15:51:56.478Z,36.80
2023-03-16T15:57:00.206Z,38.10
2023-03-16T16:02:04.212Z,37.40
2023-03-16T16:07:12.132Z,38.30
2023-03-16T16:12:16.666Z,38.70
2023-03-16T16:17:32.761Z,38.70
2023-03-16T16:22:48.505Z,38.90
2023-03-16T16:27:52.827Z,39.10
2023-03-16T16:32:58.835Z,39.50
2023-03-16T16:38:04.263Z,39.80
2023-03-16T16:43:08.356Z,39.60
2023-03-16T16:48:28.067Z,39.90
2023-03-16T16:53:32.827Z,40.00
2023-03-16T16:58:36.576Z,40.10
2023-03-16T17:03:40.390Z,40.10
2023-03-16T17:08:47.572Z,40.20
2023-03-16T17:13:52.817Z,40.70
2023-03-16T17:18:57.245Z,40.70
2023-03-16T17:24:03.785Z,40.80
2023-03-16T17:29:15.113Z,40.80
2023-03-16T17:34:20.931Z,40.80
2023-03-16T17:39:27.449Z,40.70
2023-03-16T17:44:33.798Z,41.30
2023-03-16T17:49:37.272Z,41.60
2023-03-16T17:54:42.196Z,41.70
2023-03-16T17:59:46.973Z,42.10
2023-03-16T18:04:51.210Z,42.00
2023-03-16T18:09:55.968Z,42.30
2023-03-16T18:14:59.523Z,42.30
2023-03-16T18:20:03.073Z,42.50
2023-03-16T18:25:27.802Z,42.60
2023-03-16T18:30:32.825Z,42.70
2023-03-16T18:35:38.448Z,42.90
2023-03-16T18:40:43.328Z,43.00
2023-03-16T18:45:47.294Z,44.20
2023-03-16T18:50:53.347Z,43.10
2023-03-16T18:55:58.627Z,43.20
2023-03-16T19:01:03.285Z,43.20
2023-03-16T19:06:07.557Z,43.30
2023-03-16T19:11:13.237Z,43.60
2023-03-16T19:16:18.184Z,43.70
2023-03-16T19:21:23.963Z,43.70
2023-03-16T19:26:30.634Z,43.70
2023-03-16T19:31:34.394Z,43.70
2023-03-16T19:36:38.331Z,43.50
2023-03-16T19:41:43.618Z,43.70
2023-03-16T19:46:47.801Z,43.70
2023-03-16T19:51:53.074Z,43.80
2023-03-16T19:57:01.280Z,43.80
2023-03-16T20:02:20.648Z,43.70
2023-03-16T20:07:24.430Z,43.60
2023-03-16T20:12:29.729Z,43.80
2023-03-16T20:17:33.890Z,44.00
2023-03-16T20:22:37.405Z,44.30
2023-03-16T20:27:42.688Z,44.30
2023-03-16T20:32:47.072Z,44.40
2023-03-16T20:37:52.743Z,44.50
2023-03-16T20:42:57.661Z,44.50
2023-03-16T20:48:01.844Z,44.50
2023-03-16T20:53:05.278Z,44.60
2023-03-16T20:58:19.058Z,44.80
2023-03-16T21:03:24.580Z,44.80
2023-03-16T21:08:28.817Z,45.00
2023-03-16T21:13:34.820Z,49.30
2023-03-16T21:18:38.196Z,53.40
2023-03-16T21:23:41.669Z,56.80
2023-03-16T21:28:53.299Z,59.20
2023-03-16T21:33:57.178Z,61.00
2023-03-16T21:39:01.335Z,62.20
2023-03-16T21:44:06.311Z,63.20
2023-03-16T21:49:11.553Z,64.20
2023-03-16T21:54:15.881Z,65.10
2023-03-16T21:59:22.626Z,65.80
2023-03-16T22:04:26.936Z,66.30
2023-03-16T22:09:33.106Z,66.70
2023-03-16T22:14:38.119Z,67.20
2023-03-16T22:19:41.881Z,67.70
2023-03-16T22:24:46.110Z,64.30
2023-03-16T22:29:51.243Z,61.60
2023-03-16T22:34:57.141Z,59.90
2023-03-16T22:40:02.943Z,58.70
2023-03-16T22:45:18.922Z,57.90
2023-03-16T22:50:24.284Z,57.20
2023-03-16T22:55:31.632Z,56.70
2023-03-16T23:00:38.105Z,56.30
2023-03-16T23:05:41.855Z,55.90
2023-03-16T23:10:46.183Z,55.70
2023-03-16T23:15:53.486Z,55.50
2023-03-16T23:20:57.300Z,55.30
2023-03-16T23:26:01.389Z,55.00
2023-03-16T23:31:07.421Z,54.80
2023-03-16T23:36:16.087Z,54.70
2023-03-16T23:41:22.174Z,54.40
2023-03-16T23:46:29.058Z,54.50
2023-03-16T23:51:36.674Z,54.40
2023-03-16T23:56:40.310Z,54.30
